首页
METAR-TAF:

METAR-TAF

机场 :

庫爾干秋別, 塔吉克斯坦

纬度: 37-51-44N, 经度: 068-51-46E, 海拔: 449米

当前天气观测

该预报发布于36分钟前的01:30 UTC
风速4节,风向北转西北,在西之间变化
温度 25°C
湿度 36%
气压 1008 hPa
能见度10公里或以上
少量云层高于8000英尺, 积雨云.

METAR: UTDT 310130Z 34002MPS 270V080 9999 FEW080CB 25/09 Q1008 R35/////// RMK QFE717/0956

时间: 07:06 (02:06 UTC)

预报

该预报发布于2小时和6分钟前的00:00 UTC
预报有效从31日的 01点(UTC)到 31日的 10点(UTC)
风速4节,风向多变
能見度: 6000
散云层高于6000英尺, 积雨云.
多云层高于10000英尺

TAF: UTDT 310000Z 3101/3110 VRB02MPS 6000 SCT060CB BKN100

超过4000个机场的气象观测和天气预报(METAR&TAF报告)。

可查询的气象台以黄色和红色小点在地图上表示。

将鼠标移到小点上方,可查看气象台名称。

然后点击查看天气观测和预报。

如需切换地图:点击带黑十字的绿色按钮放大地图;点击带横线的绿色按钮缩小地图;或者点击绿色箭头查看邻近地区的地图。


METAR-TAF: